createdAt,value
2023-04-15T00:02:16.710Z,4.49
2023-04-15T00:04:47.881Z,4.53
2023-04-15T00:07:15.101Z,4.42
2023-04-15T00:09:42.955Z,4.36
2023-04-15T00:12:11.994Z,4.45
2023-04-15T00:14:39.416Z,4.48
2023-04-15T00:17:06.568Z,4.45
2023-04-15T00:19:34.166Z,4.43
2023-04-15T00:22:01.448Z,4.52
2023-04-15T00:24:29.110Z,4.43
2023-04-15T00:26:56.186Z,4.43
2023-04-15T00:29:23.381Z,4.43
2023-04-15T00:31:50.946Z,4.40
2023-04-15T00:34:18.053Z,4.35
2023-04-15T00:36:45.129Z,4.39
2023-04-15T00:39:12.487Z,4.40
2023-04-15T00:41:39.806Z,4.29
2023-04-15T00:44:07.094Z,4.35
2023-04-15T00:46:35.906Z,4.30
2023-04-15T00:49:04.284Z,4.25
2023-04-15T00:51:33.588Z,4.24
2023-04-15T00:54:00.756Z,4.23
2023-04-15T00:56:28.927Z,4.26
2023-04-15T00:58:56.696Z,4.23
2023-04-15T01:01:24.853Z,4.19
2023-04-15T01:03:52.391Z,4.19
2023-04-15T01:06:19.633Z,4.18
2023-04-15T01:08:46.769Z,4.09
2023-04-15T01:11:14.123Z,4.14
2023-04-15T01:13:41.643Z,4.20
2023-04-15T01:16:09.185Z,4.17
2023-04-15T01:18:37.826Z,4.19
2023-04-15T01:21:07.769Z,4.17
2023-04-15T01:23:38.635Z,4.11
2023-04-15T01:26:07.940Z,4.07
2023-04-15T01:28:36.297Z,4.07
2023-04-15T01:31:14.951Z,4.11
2023-04-15T01:33:42.694Z,4.03
2023-04-15T01:36:28.260Z,4.01
2023-04-15T01:38:55.915Z,4.00
2023-04-15T01:41:27.162Z,4.04
2023-04-15T01:43:55.895Z,4.03
2023-04-15T01:46:24.466Z,4.00
2023-04-15T01:48:52.890Z,3.99
2023-04-15T01:51:21.991Z,3.94
2023-04-15T01:53:52.255Z,3.99
2023-04-15T01:56:20.575Z,3.88
2023-04-15T01:58:49.453Z,3.83
2023-04-15T02:01:19.827Z,3.88
2023-04-15T02:03:48.485Z,3.88
2023-04-15T02:06:18.390Z,3.90
2023-04-15T02:08:46.797Z,3.91
2023-04-15T02:11:15.458Z,3.88
2023-04-15T02:13:43.842Z,3.85
2023-04-15T02:16:15.828Z,3.86
2023-04-15T02:18:45.850Z,3.85
2023-04-15T02:21:14.257Z,3.91
2023-04-15T02:23:43.987Z,3.86
2023-04-15T02:26:15.036Z,3.84
2023-04-15T02:28:43.358Z,3.78
2023-04-15T02:31:11.744Z,3.82
2023-04-15T02:33:40.095Z,3.82
2023-04-15T02:36:09.535Z,3.88
2023-04-15T02:38:38.595Z,3.82
2023-04-15T02:41:06.966Z,3.80
2023-04-15T02:43:37.964Z,3.85
2023-04-15T02:46:06.719Z,3.94
2023-04-15T02:48:35.238Z,3.90
2023-04-15T02:51:12.658Z,3.85
2023-04-15T02:53:41.609Z,3.86
2023-04-15T02:56:10.137Z,3.86
2023-04-15T02:58:40.665Z,3.87
2023-04-15T03:01:09.038Z,3.86
2023-04-15T03:03:37.934Z,3.87
2023-04-15T03:06:06.942Z,3.89
2023-04-15T03:08:35.500Z,3.84
2023-04-15T03:11:04.598Z,3.89
2023-04-15T03:13:34.203Z,3.94
2023-04-15T03:16:09.999Z,3.88
2023-04-15T03:18:38.563Z,3.91
2023-04-15T03:21:07.303Z,3.94
2023-04-15T03:23:38.796Z,3.96
2023-04-15T03:26:07.134Z,3.95
2023-04-15T03:28:35.842Z,3.94
2023-04-15T03:31:04.274Z,3.94
2023-04-15T03:33:32.707Z,3.88
2023-04-15T03:36:01.175Z,3.93
2023-04-15T03:38:29.961Z,3.95
2023-04-15T03:40:58.304Z,4.02
2023-04-15T03:43:26.619Z,3.98
2023-04-15T03:45:54.967Z,3.98
2023-04-15T03:48:23.354Z,3.95
2023-04-15T03:50:52.064Z,3.99
2023-04-15T03:53:21.428Z,3.97
2023-04-15T03:55:50.177Z,3.96
2023-04-15T03:58:18.895Z,3.98
2023-04-15T04:00:47.314Z,3.98
2023-04-15T04:03:15.850Z,3.97
2023-04-15T04:05:44.600Z,3.96
2023-04-15T04:08:16.453Z,3.99
2023-04-15T04:10:44.956Z,3.96
2023-04-15T04:13:13.276Z,3.96
2023-04-15T04:15:42.000Z,3.97
2023-04-15T04:18:10.395Z,3.98
2023-04-15T04:20:38.719Z,3.99
2023-04-15T04:23:07.030Z,4.02
2023-04-15T04:25:35.288Z,3.98
2023-04-15T04:28:03.825Z,3.98
2023-04-15T04:30:32.703Z,4.00
2023-04-15T04:33:01.164Z,4.00
2023-04-15T04:35:29.526Z,4.11
2023-04-15T04:37:57.956Z,4.06
2023-04-15T04:40:26.377Z,4.03
2023-04-15T04:42:54.725Z,3.99
2023-04-15T04:45:23.613Z,3.96
2023-04-15T04:47:52.147Z,4.01
2023-04-15T04:50:20.557Z,3.97
2023-04-15T04:52:48.893Z,3.96
2023-04-15T04:55:17.229Z,3.91
2023-04-15T04:57:46.086Z,3.96
2023-04-15T05:00:14.883Z,4.01
2023-04-15T05:02:44.262Z,4.03
2023-04-15T05:05:13.479Z,4.08
2023-04-15T05:07:42.176Z,4.08
2023-04-15T05:10:10.751Z,4.11
2023-04-15T05:12:39.092Z,4.09
2023-04-15T05:15:07.799Z,4.11
2023-04-15T05:17:36.389Z,4.14
2023-04-15T05:20:04.967Z,4.12
2023-04-15T05:22:33.387Z,4.16
2023-04-15T05:25:01.716Z,4.16
2023-04-15T05:27:30.095Z,4.18
2023-04-15T05:29:58.511Z,4.19
2023-04-15T05:32:26.928Z,4.22
2023-04-15T05:34:55.677Z,4.23
2023-04-15T05:37:24.010Z,4.21
2023-04-15T05:39:52.570Z,4.28
2023-04-15T05:42:21.011Z,4.28
2023-04-15T05:44:49.434Z,4.27
2023-04-15T05:47:17.790Z,4.30
2023-04-15T05:49:46.463Z,4.31
2023-04-15T05:52:14.877Z,4.32
2023-04-15T05:54:43.200Z,4.34
2023-04-15T05:57:11.636Z,4.33
2023-04-15T05:59:42.127Z,4.36
2023-04-15T06:02:10.535Z,4.34
2023-04-15T06:04:39.499Z,4.37
2023-04-15T06:07:08.012Z,4.40
2023-04-15T06:09:36.393Z,4.40
2023-04-15T06:12:04.785Z,4.45
2023-04-15T06:14:33.138Z,4.49
2023-04-15T06:17:01.575Z,4.50
2023-04-15T06:19:30.394Z,4.53
2023-04-15T06:21:58.868Z,4.56
2023-04-15T06:24:27.201Z,4.60
2023-04-15T06:26:56.055Z,4.64
2023-04-15T06:29:24.412Z,4.69
2023-04-15T06:31:52.814Z,4.71
2023-04-15T06:34:21.628Z,4.73
2023-04-15T06:36:49.958Z,4.78
2023-04-15T06:39:18.306Z,4.81
2023-04-15T06:41:46.795Z,4.87
2023-04-15T06:44:15.144Z,4.98
2023-04-15T06:46:43.514Z,5.10
2023-04-15T06:49:12.337Z,5.15
2023-04-15T06:51:40.814Z,5.16
2023-04-15T06:54:09.163Z,5.27
2023-04-15T06:56:37.540Z,5.40
2023-04-15T06:59:05.888Z,5.49
2023-04-15T07:01:34.310Z,5.47
2023-04-15T07:04:02.718Z,5.54
2023-04-15T07:06:31.518Z,5.53
2023-04-15T07:09:00.394Z,5.58
2023-04-15T07:11:28.874Z,5.58
2023-04-15T07:13:58.275Z,5.59
2023-04-15T07:16:28.617Z,5.56
2023-04-15T07:18:58.292Z,5.53
2023-04-15T07:21:27.641Z,5.49
2023-04-15T07:23:56.013Z,5.48
2023-04-15T07:26:24.693Z,5.46
2023-04-15T07:28:53.032Z,5.38
2023-04-15T07:31:21.421Z,5.45
2023-04-15T07:33:49.746Z,5.46
2023-04-15T07:36:18.050Z,5.45
2023-04-15T07:38:46.378Z,5.46
2023-04-15T07:41:15.491Z,5.48
2023-04-15T07:43:43.882Z,5.48
2023-04-15T07:46:12.293Z,5.56
2023-04-15T07:48:40.766Z,5.56
2023-04-15T07:51:10.781Z,5.62
2023-04-15T07:53:39.163Z,5.62
2023-04-15T07:56:07.548Z,5.63
2023-04-15T07:58:36.041Z,5.59
2023-04-15T08:01:05.065Z,5.65
2023-04-15T08:03:33.853Z,5.63
2023-04-15T08:06:02.473Z,5.64
2023-04-15T08:08:31.185Z,5.69
2023-04-15T08:10:59.541Z,5.77
2023-04-15T08:13:27.974Z,5.82
2023-04-15T08:16:15.016Z,5.83
2023-04-15T08:18:43.337Z,5.78
2023-04-15T08:21:11.683Z,5.81
2023-04-15T08:23:40.190Z,5.91
2023-04-15T08:26:08.891Z,6.01
2023-04-15T08:28:38.449Z,6.05
2023-04-15T08:31:07.339Z,6.13
2023-04-15T08:33:35.842Z,6.22
2023-04-15T08:36:04.589Z,6.30
2023-04-15T08:38:33.477Z,6.51
2023-04-15T08:41:07.671Z,6.62
2023-04-15T08:43:42.060Z,6.55
2023-04-15T08:46:10.834Z,6.56
2023-04-15T08:48:40.650Z,6.51
2023-04-15T08:51:09.499Z,6.41
2023-04-15T08:53:37.919Z,6.35
2023-04-15T08:56:07.667Z,6.39
2023-04-15T08:58:36.454Z,6.30
2023-04-15T09:01:04.880Z,6.21
2023-04-15T09:03:34.159Z,6.21
2023-04-15T09:06:04.092Z,6.32
2023-04-15T09:08:34.465Z,6.34
2023-04-15T09:11:03.472Z,6.41
2023-04-15T09:13:32.044Z,6.52
2023-04-15T09:16:05.279Z,6.64
2023-04-15T09:18:34.676Z,6.67
2023-04-15T09:21:08.758Z,6.67
2023-04-15T09:23:38.567Z,6.55
2023-04-15T09:26:07.159Z,6.49
2023-04-15T09:28:41.802Z,6.49
2023-04-15T09:31:11.082Z,6.56
2023-04-15T09:33:54.346Z,6.52
2023-04-15T09:36:23.111Z,6.60
2023-04-15T09:38:55.145Z,6.65
2023-04-15T09:41:24.271Z,6.60
2023-04-15T09:43:52.922Z,6.79
2023-04-15T09:46:40.249Z,6.70
2023-04-15T09:49:09.389Z,6.51
2023-04-15T09:51:37.896Z,6.29
2023-04-15T09:54:07.312Z,6.39
2023-04-15T09:56:37.823Z,6.40
2023-04-15T09:59:06.474Z,6.44
2023-04-15T10:01:36.229Z,6.36
2023-04-15T10:04:05.372Z,6.28
2023-04-15T10:06:34.365Z,6.54
2023-04-15T10:09:02.789Z,6.50
2023-04-15T10:11:31.962Z,6.51
2023-04-15T10:14:01.163Z,6.61
2023-04-15T10:16:32.589Z,6.76
2023-04-15T10:19:02.287Z,6.89
2023-04-15T10:21:30.818Z,6.62
2023-04-15T10:24:01.874Z,6.52
2023-04-15T10:26:30.986Z,6.34
2023-04-15T10:29:00.159Z,6.56
2023-04-15T10:31:29.248Z,6.68
2023-04-15T10:33:58.079Z,6.60
2023-04-15T10:36:26.550Z,6.63
2023-04-15T10:38:54.869Z,6.69
2023-04-15T10:41:24.581Z,6.74
2023-04-15T10:43:57.797Z,6.79
2023-04-15T10:46:42.566Z,6.52
2023-04-15T10:49:14.928Z,6.53
2023-04-15T10:51:44.604Z,6.38
2023-04-15T10:54:17.583Z,6.47
2023-04-15T10:56:46.121Z,6.39
2023-04-15T10:59:16.353Z,6.45
2023-04-15T11:02:00.653Z,6.43
2023-04-15T11:04:48.077Z,6.44
2023-04-15T11:07:32.905Z,6.49
2023-04-15T11:10:01.794Z,6.34
2023-04-15T11:12:36.430Z,6.18
2023-04-15T11:15:23.584Z,6.22
2023-04-15T11:17:52.258Z,6.13
2023-04-15T11:20:21.197Z,6.15
2023-04-15T11:23:14.333Z,6.06
2023-04-15T11:25:44.313Z,5.97
2023-04-15T11:28:13.080Z,6.11
2023-04-15T11:30:42.402Z,6.12
2023-04-15T11:33:14.686Z,5.99
2023-04-15T11:35:44.043Z,5.99
2023-04-15T11:38:13.890Z,5.86
2023-04-15T11:40:45.241Z,5.80
2023-04-15T11:43:16.082Z,5.87
2023-04-15T11:45:48.947Z,5.86
2023-04-15T11:48:17.455Z,5.91
2023-04-15T11:50:46.087Z,6.02
2023-04-15T11:53:13.924Z,6.08
2023-04-15T11:55:42.149Z,6.02
2023-04-15T11:58:29.485Z,6.06
2023-04-15T12:01:00.727Z,6.01
2023-04-15T12:03:29.361Z,5.95
2023-04-15T12:06:08.529Z,5.91
2023-04-15T12:08:56.028Z,5.92
2023-04-15T12:11:42.067Z,5.92
2023-04-15T12:14:15.914Z,5.79
2023-04-15T12:16:48.142Z,5.78
2023-04-15T12:19:18.318Z,5.90
2023-04-15T12:21:47.816Z,5.93
2023-04-15T12:24:14.944Z,6.07
2023-04-15T12:26:49.395Z,6.08
2023-04-15T12:29:17.590Z,6.15
2023-04-15T12:31:49.785Z,6.28
2023-04-15T12:34:17.379Z,6.36
2023-04-15T12:36:44.446Z,6.30
2023-04-15T12:39:11.587Z,6.24
2023-04-15T12:41:38.896Z,6.17
2023-04-15T12:44:06.219Z,6.16
2023-04-15T12:46:33.489Z,6.27
2023-04-15T12:49:01.190Z,6.28
2023-04-15T12:51:28.377Z,6.21
2023-04-15T12:53:55.395Z,6.20
2023-04-15T12:56:22.585Z,6.25
2023-04-15T12:58:49.758Z,6.35
2023-04-15T13:01:17.008Z,6.29
2023-04-15T13:03:44.389Z,6.29
2023-04-15T13:06:11.628Z,6.23
2023-04-15T13:08:42.748Z,6.11
2023-04-15T13:11:15.084Z,6.01
2023-04-15T13:13:42.128Z,6.04
2023-04-15T13:16:09.845Z,5.95
2023-04-15T13:18:37.017Z,5.98
2023-04-15T13:21:05.340Z,5.98
2023-04-15T13:23:32.504Z,5.97
2023-04-15T13:25:59.559Z,5.93
2023-04-15T13:28:27.176Z,5.94
2023-04-15T13:30:54.319Z,5.97
2023-04-15T13:33:21.627Z,6.12
2023-04-15T13:35:48.792Z,6.09
2023-04-15T13:38:15.896Z,6.06
2023-04-15T13:40:43.010Z,6.03
2023-04-15T13:43:10.201Z,6.02
2023-04-15T13:45:37.371Z,6.03
2023-04-15T13:48:04.535Z,6.00
2023-04-15T13:50:31.729Z,5.99
2023-04-15T13:52:58.820Z,6.03
2023-04-15T13:55:27.110Z,5.99
2023-04-15T13:57:55.111Z,5.98
2023-04-15T14:00:22.339Z,5.94
2023-04-15T14:02:49.576Z,5.93
2023-04-15T14:05:17.101Z,5.99
2023-04-15T14:07:44.212Z,6.01
2023-04-15T14:10:11.275Z,6.06
2023-04-15T14:12:38.348Z,6.09
2023-04-15T14:15:05.984Z,6.07
2023-04-15T14:17:33.316Z,5.98
2023-04-15T14:20:00.494Z,5.99
2023-04-15T14:22:27.560Z,6.04
2023-04-15T14:24:55.657Z,6.02
2023-04-15T14:27:23.124Z,6.04
2023-04-15T14:29:50.616Z,5.97
2023-04-15T14:32:17.731Z,6.00
2023-04-15T14:34:44.788Z,6.03
2023-04-15T14:37:11.951Z,6.05
2023-04-15T14:39:39.684Z,6.04
2023-04-15T14:42:06.841Z,6.03
2023-04-15T14:44:33.957Z,6.04
2023-04-15T14:47:01.087Z,5.98
2023-04-15T14:49:28.522Z,5.99
2023-04-15T14:51:55.671Z,6.00
2023-04-15T14:54:22.728Z,6.02
2023-04-15T14:56:49.882Z,5.98
2023-04-15T14:59:17.118Z,5.96
2023-04-15T15:01:44.268Z,5.95
2023-04-15T15:04:11.666Z,5.94
2023-04-15T15:06:39.549Z,6.01
2023-04-15T15:09:07.003Z,5.98
2023-04-15T15:11:34.282Z,6.02
2023-04-15T15:14:01.424Z,6.04
2023-04-15T15:16:29.356Z,6.03
2023-04-15T15:18:56.566Z,6.00
2023-04-15T15:21:23.850Z,5.97
2023-04-15T15:23:51.006Z,5.98
2023-04-15T15:26:19.310Z,5.99
2023-04-15T15:28:46.762Z,6.02
2023-04-15T15:31:14.593Z,6.00
2023-04-15T15:33:41.789Z,6.01
2023-04-15T15:36:11.006Z,6.00
2023-04-15T15:38:38.088Z,5.98
2023-04-15T15:41:05.300Z,6.00
2023-04-15T15:43:32.663Z,5.97
2023-04-15T15:45:59.771Z,5.98
2023-04-15T15:48:26.880Z,5.97
2023-04-15T15:50:54.061Z,5.96
2023-04-15T15:53:24.183Z,5.92
2023-04-15T15:55:53.627Z,5.93
2023-04-15T15:58:21.022Z,5.91
2023-04-15T16:00:48.093Z,5.94
2023-04-15T16:03:15.529Z,5.95
2023-04-15T16:05:42.790Z,5.95
2023-04-15T16:08:09.895Z,5.89
2023-04-15T16:10:37.851Z,5.86
2023-04-15T16:13:05.315Z,5.79
2023-04-15T16:15:32.472Z,5.82
2023-04-15T16:17:59.671Z,5.79
2023-04-15T16:20:28.428Z,5.74
2023-04-15T16:22:58.822Z,5.74
2023-04-15T16:25:25.908Z,5.73
2023-04-15T16:28:03.116Z,5.74
2023-04-15T16:30:37.062Z,5.73
2023-04-15T16:33:04.896Z,5.71
2023-04-15T16:35:33.978Z,5.70
2023-04-15T16:38:01.784Z,5.70
2023-04-15T16:40:28.809Z,5.70
2023-04-15T16:42:55.887Z,5.70
2023-04-15T16:45:22.972Z,5.69
2023-04-15T16:47:50.321Z,5.59
2023-04-15T16:50:17.478Z,5.68
2023-04-15T16:52:44.626Z,5.70
2023-04-15T16:55:11.692Z,5.65
2023-04-15T16:58:01.573Z,5.65
2023-04-15T17:00:25.950Z,5.65
2023-04-15T17:02:53.145Z,5.62
2023-04-15T17:05:20.512Z,5.56
2023-04-15T17:07:47.600Z,5.57
2023-04-15T17:10:14.788Z,5.56
2023-04-15T17:12:41.925Z,5.56
2023-04-15T17:15:09.178Z,5.49
2023-04-15T17:17:39.695Z,5.51
2023-04-15T17:20:06.944Z,5.51
2023-04-15T17:22:34.739Z,5.47
2023-04-15T17:25:02.061Z,5.47
2023-04-15T17:27:33.369Z,5.51
2023-04-15T17:30:08.093Z,5.55
2023-04-15T17:32:55.033Z,5.55
2023-04-15T17:35:42.013Z,5.52
2023-04-15T17:38:28.964Z,5.52
2023-04-15T17:40:56.071Z,5.52
2023-04-15T17:43:43.028Z,5.50
2023-04-15T17:46:30.797Z,5.48
2023-04-15T17:49:17.799Z,5.50
2023-04-15T17:52:04.840Z,5.51
2023-04-15T17:54:51.787Z,5.50
2023-04-15T17:57:40.734Z,5.53
2023-04-15T18:00:27.665Z,5.55
2023-04-15T18:03:15.124Z,5.52
2023-04-15T18:06:02.205Z,5.45
2023-04-15T18:08:49.277Z,5.44
2023-04-15T18:11:36.216Z,5.39
2023-04-15T18:14:33.492Z,5.38
2023-04-15T18:17:21.911Z,5.44
2023-04-15T18:20:09.088Z,5.44
2023-04-15T18:22:36.130Z,5.39
2023-04-15T18:25:04.443Z,5.37
2023-04-15T18:27:33.119Z,5.40
2023-04-15T18:30:00.310Z,5.39
2023-04-15T18:32:31.649Z,5.41
2023-04-15T18:34:59.003Z,5.41
2023-04-15T18:37:32.027Z,5.42
2023-04-15T18:39:59.465Z,5.42
2023-04-15T18:42:26.646Z,5.40
2023-04-15T18:44:53.845Z,5.40
2023-04-15T18:47:21.003Z,5.41
2023-04-15T18:49:48.098Z,5.36
2023-04-15T18:52:15.167Z,5.40
2023-04-15T18:54:42.202Z,5.34
2023-04-15T18:57:09.320Z,5.37
2023-04-15T18:59:36.790Z,5.40
2023-04-15T19:02:06.493Z,5.36
2023-04-15T19:04:33.691Z,5.36
2023-04-15T19:07:01.880Z,5.34
2023-04-15T19:09:29.307Z,5.31
2023-04-15T19:11:56.902Z,5.27
2023-04-15T19:14:24.614Z,5.32
2023-04-15T19:16:51.709Z,5.31
2023-04-15T19:19:18.966Z,5.33
2023-04-15T19:21:47.646Z,5.33
2023-04-15T19:24:14.705Z,5.34
2023-04-15T19:26:41.772Z,5.34
2023-04-15T19:29:08.802Z,5.32
2023-04-15T19:31:35.827Z,5.30
2023-04-15T19:34:02.878Z,5.33
2023-04-15T19:36:31.450Z,5.35
2023-04-15T19:39:01.539Z,5.36
2023-04-15T19:41:28.728Z,5.34
2023-04-15T19:43:56.012Z,5.36
2023-04-15T19:46:23.263Z,5.36
2023-04-15T19:48:50.488Z,5.37
2023-04-15T19:51:17.564Z,5.35
2023-04-15T19:53:44.748Z,5.32
2023-04-15T19:56:11.772Z,5.31
2023-04-15T19:58:38.860Z,5.30
2023-04-15T20:01:06.108Z,5.31
2023-04-15T20:03:33.325Z,5.34
2023-04-15T20:06:00.546Z,5.35
2023-04-15T20:08:27.586Z,5.32
2023-04-15T20:10:54.671Z,5.32
2023-04-15T20:13:21.831Z,5.29
2023-04-15T20:15:49.128Z,5.33
2023-04-15T20:18:16.272Z,5.28
2023-04-15T20:20:43.336Z,5.29
2023-04-15T20:23:10.467Z,5.30
2023-04-15T20:25:37.533Z,5.28
2023-04-15T20:28:04.619Z,5.31
2023-04-15T20:30:31.739Z,5.30
2023-04-15T20:32:58.888Z,5.32
2023-04-15T20:35:28.176Z,5.31
2023-04-15T20:37:55.400Z,5.29
2023-04-15T20:40:22.976Z,5.27
2023-04-15T20:42:50.052Z,5.27
2023-04-15T20:45:17.110Z,5.28
2023-04-15T20:47:44.183Z,5.28
2023-04-15T20:50:11.626Z,5.26
2023-04-15T20:52:39.080Z,5.27
2023-04-15T20:55:07.000Z,5.26
2023-04-15T20:57:34.485Z,5.24
2023-04-15T21:00:01.583Z,5.27
2023-04-15T21:02:28.873Z,5.26
2023-04-15T21:04:56.228Z,5.27
2023-04-15T21:07:23.344Z,5.27
2023-04-15T21:09:50.511Z,5.24
2023-04-15T21:12:17.597Z,5.27
2023-04-15T21:14:44.679Z,5.26
2023-04-15T21:17:11.800Z,5.22
2023-04-15T21:19:39.036Z,5.29
2023-04-15T21:22:06.126Z,5.27
2023-04-15T21:24:33.274Z,5.27
2023-04-15T21:27:01.863Z,5.22
2023-04-15T21:29:29.190Z,5.25
2023-04-15T21:31:56.333Z,5.26
2023-04-15T21:34:23.614Z,5.23
2023-04-15T21:36:50.641Z,5.20
2023-04-15T21:39:17.819Z,5.22
2023-04-15T21:41:44.954Z,5.23
2023-04-15T21:44:14.452Z,5.24
2023-04-15T21:46:42.189Z,5.25
2023-04-15T21:49:13.563Z,5.21
2023-04-15T21:51:40.662Z,5.18
2023-04-15T21:54:07.765Z,5.23
2023-04-15T21:56:34.825Z,5.20
2023-04-15T21:59:01.876Z,5.19
2023-04-15T22:01:29.144Z,5.17
2023-04-15T22:03:56.471Z,5.20
2023-04-15T22:06:23.695Z,5.24
2023-04-15T22:08:56.933Z,5.20
2023-04-15T22:11:28.671Z,5.21
2023-04-15T22:13:57.181Z,5.22
2023-04-15T22:16:27.564Z,5.23
2023-04-15T22:18:54.884Z,5.25
2023-04-15T22:21:22.093Z,5.22
2023-04-15T22:23:49.295Z,5.22
2023-04-15T22:26:16.398Z,5.24
2023-04-15T22:28:43.509Z,5.19
2023-04-15T22:31:10.681Z,5.24
2023-04-15T22:33:38.874Z,5.20
2023-04-15T22:36:06.308Z,5.19
2023-04-15T22:38:33.455Z,5.19
2023-04-15T22:41:00.701Z,5.19
2023-04-15T22:43:27.930Z,5.17
2023-04-15T22:45:55.334Z,5.14
2023-04-15T22:48:23.168Z,5.16
2023-04-15T22:50:50.340Z,5.17
2023-04-15T22:53:17.952Z,5.22
2023-04-15T22:55:46.656Z,5.19
2023-04-15T22:58:14.083Z,5.22
2023-04-15T23:00:41.379Z,5.18
2023-04-15T23:03:08.693Z,5.23
2023-04-15T23:05:36.502Z,5.24
2023-04-15T23:08:03.568Z,5.22
2023-04-15T23:10:30.623Z,5.20
2023-04-15T23:12:57.662Z,5.16
2023-04-15T23:15:25.314Z,5.18
2023-04-15T23:17:52.405Z,5.18
2023-04-15T23:20:19.642Z,5.20
2023-04-15T23:22:46.751Z,5.18
2023-04-15T23:25:13.869Z,5.18
2023-04-15T23:27:41.014Z,5.18
2023-04-15T23:30:08.287Z,5.20
2023-04-15T23:32:35.399Z,5.20
2023-04-15T23:35:02.548Z,5.18
2023-04-15T23:37:30.238Z,5.17
2023-04-15T23:39:57.261Z,5.16
2023-04-15T23:42:24.680Z,5.15
2023-04-15T23:44:51.762Z,5.17
2023-04-15T23:47:18.898Z,5.14
2023-04-15T23:49:46.285Z,5.13
2023-04-15T23:52:13.372Z,5.14
2023-04-15T23:54:40.542Z,5.12
2023-04-15T23:57:07.626Z,5.14
2023-04-15T23:59:34.702Z,5.09
